Citrus City, Texas
Current Conditions -  °F | °C
As of 10:53 PM on Monday 20 Oct 2014 (Local Time) from KMFE Reporting Station
Clear Clear  
Wind Chill: 74°   Ceiling: Unl
Heat Index: 74°   Visibility: 10mi
Dew Point: 70°   Wind: 7mph
Humidity: 87%   Direction: 40°NE
Pressure: 29.96"   Gusts: NA
Location:  26.2167°N, 98.325°W
Report Text: KMFE 210353Z AUTO 04006KT 10SM CLR 23/21 A2996 RMK AO2 SLP143 T02330211 TSNO
Loading
Personal Weather Stations






























Interactive Weather Map
Tropical Storm Tracking
New forecast layout! Learn more

10-Day Weather Forecast

Advertisements
Track Severe Weather on mobile